sensor_id;sensor_type;location;lat;lon;timestamp;P1;durP1;ratioP1;P2;durP2;ratioP2
65755;SDS011;69208;47.502;18.940;2023-08-06T00:00:26;34.28;;;7.80;;
65755;SDS011;69208;47.502;18.940;2023-08-06T00:01:29;25.02;;;7.80;;
65755;SDS011;69208;47.502;18.940;2023-08-06T00:02:32;394.35;;;16.90;;
65755;SDS011;69208;47.502;18.940;2023-08-06T00:03:35;16.65;;;7.22;;
65755;SDS011;69208;47.502;18.940;2023-08-06T00:04:38;39.30;;;8.23;;
65755;SDS011;69208;47.502;18.940;2023-08-06T00:05:42;86.90;;;9.55;;
65755;SDS011;69208;47.502;18.940;2023-08-06T00:06:45;47.67;;;8.25;;
65755;SDS011;69208;47.502;18.940;2023-08-06T00:07:48;78.60;;;9.15;;
65755;SDS011;69208;47.502;18.940;2023-08-06T00:08:51;23.33;;;7.93;;
65755;SDS011;69208;47.502;18.940;2023-08-06T00:09:54;80.85;;;8.63;;
65755;SDS011;69208;47.502;18.940;2023-08-06T00:10:57;129.90;;;10.38;;
65755;SDS011;69208;47.502;18.940;2023-08-06T00:11:59;176.68;;;11.40;;
65755;SDS011;69208;47.502;18.940;2023-08-06T00:13:02;308.20;;;13.57;;
65755;SDS011;69208;47.502;18.940;2023-08-06T00:14:05;127.47;;;10.82;;
65755;SDS011;69208;47.502;18.940;2023-08-06T00:15:08;260.40;;;12.30;;
65755;SDS011;69208;47.502;18.940;2023-08-06T00:16:12;118.13;;;9.27;;
65755;SDS011;69208;47.502;18.940;2023-08-06T00:17:16;37.33;;;8.23;;
65755;SDS011;69208;47.502;18.940;2023-08-06T00:18:19;201.07;;;11.40;;
65755;SDS011;69208;47.502;18.940;2023-08-06T00:19:21;114.30;;;9.48;;
65755;SDS011;69208;47.502;18.940;2023-08-06T00:20:24;111.53;;;9.98;;
65755;SDS011;69208;47.502;18.940;2023-08-06T00:21:27;128.73;;;10.05;;
65755;SDS011;69208;47.502;18.940;2023-08-06T00:22:33;451.20;;;16.73;;
65755;SDS011;69208;47.502;18.940;2023-08-06T00:23:36;59.53;;;8.65;;
65755;SDS011;69208;47.502;18.940;2023-08-06T00:24:39;192.65;;;10.95;;
65755;SDS011;69208;47.502;18.940;2023-08-06T00:25:42;74.70;;;8.48;;
65755;SDS011;69208;47.502;18.940;2023-08-06T00:26:44;43.45;;;7.97;;
65755;SDS011;69208;47.502;18.940;2023-08-06T00:27:47;42.92;;;8.20;;
65755;SDS011;69208;47.502;18.940;2023-08-06T00:28:50;104.43;;;9.05;;
65755;SDS011;69208;47.502;18.940;2023-08-06T00:29:52;9.80;;;6.95;;
65755;SDS011;69208;47.502;18.940;2023-08-06T00:30:56;81.53;;;8.75;;
65755;SDS011;69208;47.502;18.940;2023-08-06T00:31:59;62.55;;;8.65;;
65755;SDS011;69208;47.502;18.940;2023-08-06T00:33:01;34.88;;;8.45;;
65755;SDS011;69208;47.502;18.940;2023-08-06T00:34:04;45.60;;;8.70;;
65755;SDS011;69208;47.502;18.940;2023-08-06T00:35:07;65.43;;;9.48;;
65755;SDS011;69208;47.502;18.940;2023-08-06T00:36:09;23.52;;;8.02;;
65755;SDS011;69208;47.502;18.940;2023-08-06T00:37:12;31.17;;;8.57;;
65755;SDS011;69208;47.502;18.940;2023-08-06T00:38:15;21.37;;;8.63;;
65755;SDS011;69208;47.502;18.940;2023-08-06T00:39:18;28.33;;;9.02;;
65755;SDS011;69208;47.502;18.940;2023-08-06T00:40:21;26.70;;;8.55;;
65755;SDS011;69208;47.502;18.940;2023-08-06T00:41:25;12.40;;;8.32;;
65755;SDS011;69208;47.502;18.940;2023-08-06T00:42:27;10.93;;;9.20;;
65755;SDS011;69208;47.502;18.940;2023-08-06T00:43:30;19.70;;;10.00;;
65755;SDS011;69208;47.502;18.940;2023-08-06T00:44:33;11.00;;;8.32;;
65755;SDS011;69208;47.502;18.940;2023-08-06T00:45:36;13.75;;;8.80;;
65755;SDS011;69208;47.502;18.940;2023-08-06T00:46:39;10.60;;;9.23;;
65755;SDS011;69208;47.502;18.940;2023-08-06T00:47:42;14.63;;;8.98;;
65755;SDS011;69208;47.502;18.940;2023-08-06T00:48:45;10.15;;;8.70;;
65755;SDS011;69208;47.502;18.940;2023-08-06T00:49:48;10.70;;;8.55;;
65755;SDS011;69208;47.502;18.940;2023-08-06T00:50:51;10.43;;;9.18;;
65755;SDS011;69208;47.502;18.940;2023-08-06T00:51:54;12.37;;;9.45;;
65755;SDS011;69208;47.502;18.940;2023-08-06T00:52:58;10.02;;;8.82;;
65755;SDS011;69208;47.502;18.940;2023-08-06T00:54:02;10.55;;;8.90;;
65755;SDS011;69208;47.502;18.940;2023-08-06T00:55:05;10.27;;;8.88;;
65755;SDS011;69208;47.502;18.940;2023-08-06T00:56:09;9.65;;;8.65;;
65755;SDS011;69208;47.502;18.940;2023-08-06T00:57:12;9.55;;;8.55;;
65755;SDS011;69208;47.502;18.940;2023-08-06T00:58:15;12.40;;;9.00;;
65755;SDS011;69208;47.502;18.940;2023-08-06T00:59:19;11.38;;;8.95;;
65755;SDS011;69208;47.502;18.940;2023-08-06T01:00:22;9.70;;;8.70;;
65755;SDS011;69208;47.502;18.940;2023-08-06T01:01:27;11.02;;;8.90;;
65755;SDS011;69208;47.502;18.940;2023-08-06T01:02:29;13.27;;;9.02;;
65755;SDS011;69208;47.502;18.940;2023-08-06T01:03:32;10.15;;;8.88;;
65755;SDS011;69208;47.502;18.940;2023-08-06T01:04:36;10.25;;;8.30;;
65755;SDS011;69208;47.502;18.940;2023-08-06T01:05:38;10.90;;;8.45;;
65755;SDS011;69208;47.502;18.940;2023-08-06T01:06:48;11.38;;;8.70;;
65755;SDS011;69208;47.502;18.940;2023-08-06T01:09:34;10.65;;;8.10;;
65755;SDS011;69208;47.502;18.940;2023-08-06T01:14:53;9.95;;;7.70;;
65755;SDS011;69208;47.502;18.940;2023-08-06T01:17:13;9.45;;;7.65;;
65755;SDS011;69208;47.502;18.940;2023-08-06T01:18:16;10.82;;;7.25;;
65755;SDS011;69208;47.502;18.940;2023-08-06T01:19:19;10.20;;;7.75;;
65755;SDS011;69208;47.502;18.940;2023-08-06T01:20:29;10.25;;;7.97;;
65755;SDS011;69208;47.502;18.940;2023-08-06T01:21:33;10.48;;;8.05;;
65755;SDS011;69208;47.502;18.940;2023-08-06T01:22:36;9.68;;;7.78;;
65755;SDS011;69208;47.502;18.940;2023-08-06T01:23:39;9.50;;;7.90;;
65755;SDS011;69208;47.502;18.940;2023-08-06T01:24:42;9.02;;;7.87;;
65755;SDS011;69208;47.502;18.940;2023-08-06T01:25:59;10.00;;;7.97;;
65755;SDS011;69208;47.502;18.940;2023-08-06T01:30:35;11.63;;;7.53;;
65755;SDS011;69208;47.502;18.940;2023-08-06T01:31:42;8.05;;;6.80;;
65755;SDS011;69208;47.502;18.940;2023-08-06T01:32:49;9.73;;;7.22;;
65755;SDS011;69208;47.502;18.940;2023-08-06T01:33:56;8.35;;;6.85;;
65755;SDS011;69208;47.502;18.940;2023-08-06T01:35:02;8.63;;;6.72;;
65755;SDS011;69208;47.502;18.940;2023-08-06T01:36:06;8.30;;;7.05;;
65755;SDS011;69208;47.502;18.940;2023-08-06T01:37:09;8.25;;;6.70;;
65755;SDS011;69208;47.502;18.940;2023-08-06T01:38:12;7.95;;;6.97;;
65755;SDS011;69208;47.502;18.940;2023-08-06T01:39:15;10.27;;;6.82;;
65755;SDS011;69208;47.502;18.940;2023-08-06T01:40:18;9.32;;;6.82;;
65755;SDS011;69208;47.502;18.940;2023-08-06T01:41:20;8.85;;;6.47;;
65755;SDS011;69208;47.502;18.940;2023-08-06T01:42:23;8.07;;;7.03;;
65755;SDS011;69208;47.502;18.940;2023-08-06T01:43:26;9.18;;;6.55;;
65755;SDS011;69208;47.502;18.940;2023-08-06T01:44:29;7.93;;;6.80;;
65755;SDS011;69208;47.502;18.940;2023-08-06T01:45:31;12.00;;;6.80;;
65755;SDS011;69208;47.502;18.940;2023-08-06T01:46:34;7.90;;;6.60;;
65755;SDS011;69208;47.502;18.940;2023-08-06T01:47:37;8.60;;;6.90;;
65755;SDS011;69208;47.502;18.940;2023-08-06T01:48:40;9.93;;;7.22;;
65755;SDS011;69208;47.502;18.940;2023-08-06T01:49:43;9.48;;;7.18;;
65755;SDS011;69208;47.502;18.940;2023-08-06T01:50:46;9.10;;;6.85;;
65755;SDS011;69208;47.502;18.940;2023-08-06T01:51:48;7.22;;;6.40;;
65755;SDS011;69208;47.502;18.940;2023-08-06T01:52:51;8.02;;;6.50;;
65755;SDS011;69208;47.502;18.940;2023-08-06T01:53:54;9.63;;;6.60;;
65755;SDS011;69208;47.502;18.940;2023-08-06T01:54:57;8.45;;;6.62;;
65755;SDS011;69208;47.502;18.940;2023-08-06T01:56:00;8.27;;;6.68;;
65755;SDS011;69208;47.502;18.940;2023-08-06T01:57:03;8.50;;;6.87;;
65755;SDS011;69208;47.502;18.940;2023-08-06T01:58:05;7.40;;;6.10;;
65755;SDS011;69208;47.502;18.940;2023-08-06T01:59:08;8.15;;;6.78;;
65755;SDS011;69208;47.502;18.940;2023-08-06T02:00:11;11.55;;;6.65;;
65755;SDS011;69208;47.502;18.940;2023-08-06T02:01:14;8.57;;;6.50;;
65755;SDS011;69208;47.502;18.940;2023-08-06T02:02:17;10.68;;;6.47;;
65755;SDS011;69208;47.502;18.940;2023-08-06T02:03:20;8.77;;;6.72;;
65755;SDS011;69208;47.502;18.940;2023-08-06T02:04:23;8.40;;;6.40;;
65755;SDS011;69208;47.502;18.940;2023-08-06T02:05:25;8.70;;;6.20;;
65755;SDS011;69208;47.502;18.940;2023-08-06T02:06:28;11.00;;;6.60;;
65755;SDS011;69208;47.502;18.940;2023-08-06T02:07:31;12.15;;;6.60;;
65755;SDS011;69208;47.502;18.940;2023-08-06T02:08:33;8.02;;;6.68;;
65755;SDS011;69208;47.502;18.940;2023-08-06T02:09:37;8.48;;;6.57;;
65755;SDS011;69208;47.502;18.940;2023-08-06T02:10:40;8.45;;;6.35;;
65755;SDS011;69208;47.502;18.940;2023-08-06T02:11:44;7.70;;;6.45;;
65755;SDS011;69208;47.502;18.940;2023-08-06T02:12:46;7.20;;;6.20;;
65755;SDS011;69208;47.502;18.940;2023-08-06T02:13:49;7.78;;;6.82;;
65755;SDS011;69208;47.502;18.940;2023-08-06T02:14:52;12.98;;;6.25;;
65755;SDS011;69208;47.502;18.940;2023-08-06T02:15:55;6.97;;;5.82;;
65755;SDS011;69208;47.502;18.940;2023-08-06T02:16:57;11.93;;;5.97;;
65755;SDS011;69208;47.502;18.940;2023-08-06T02:18:00;10.23;;;6.65;;
65755;SDS011;69208;47.502;18.940;2023-08-06T02:19:03;7.85;;;6.75;;
65755;SDS011;69208;47.502;18.940;2023-08-06T02:20:06;7.87;;;6.10;;
65755;SDS011;69208;47.502;18.940;2023-08-06T02:21:09;6.68;;;5.85;;
65755;SDS011;69208;47.502;18.940;2023-08-06T02:22:12;7.75;;;6.37;;
65755;SDS011;69208;47.502;18.940;2023-08-06T02:23:14;7.28;;;6.35;;
65755;SDS011;69208;47.502;18.940;2023-08-06T02:24:17;9.23;;;6.37;;
65755;SDS011;69208;47.502;18.940;2023-08-06T02:25:20;7.22;;;6.20;;
65755;SDS011;69208;47.502;18.940;2023-08-06T02:26:23;7.00;;;5.90;;
65755;SDS011;69208;47.502;18.940;2023-08-06T02:27:25;12.95;;;6.45;;
65755;SDS011;69208;47.502;18.940;2023-08-06T02:28:28;8.13;;;6.50;;
65755;SDS011;69208;47.502;18.940;2023-08-06T02:29:32;9.00;;;6.60;;
65755;SDS011;69208;47.502;18.940;2023-08-06T02:30:34;7.72;;;5.90;;
65755;SDS011;69208;47.502;18.940;2023-08-06T02:31:37;8.07;;;6.10;;
65755;SDS011;69208;47.502;18.940;2023-08-06T02:32:40;8.18;;;6.50;;
65755;SDS011;69208;47.502;18.940;2023-08-06T02:33:42;6.95;;;5.57;;
65755;SDS011;69208;47.502;18.940;2023-08-06T02:34:45;8.13;;;5.95;;
65755;SDS011;69208;47.502;18.940;2023-08-06T02:35:48;8.45;;;6.15;;
65755;SDS011;69208;47.502;18.940;2023-08-06T02:36:51;11.20;;;6.20;;
65755;SDS011;69208;47.502;18.940;2023-08-06T02:37:53;9.98;;;6.10;;
65755;SDS011;69208;47.502;18.940;2023-08-06T02:38:56;8.70;;;6.15;;
65755;SDS011;69208;47.502;18.940;2023-08-06T02:39:59;8.02;;;6.50;;
65755;SDS011;69208;47.502;18.940;2023-08-06T02:41:02;14.32;;;6.50;;
65755;SDS011;69208;47.502;18.940;2023-08-06T02:42:06;6.93;;;5.80;;
65755;SDS011;69208;47.502;18.940;2023-08-06T02:43:09;9.07;;;6.40;;
65755;SDS011;69208;47.502;18.940;2023-08-06T02:44:12;12.30;;;6.22;;
65755;SDS011;69208;47.502;18.940;2023-08-06T02:45:15;10.70;;;6.25;;
65755;SDS011;69208;47.502;18.940;2023-08-06T02:46:18;12.00;;;6.20;;
65755;SDS011;69208;47.502;18.940;2023-08-06T02:47:20;11.02;;;6.37;;
65755;SDS011;69208;47.502;18.940;2023-08-06T02:48:23;10.23;;;5.93;;
65755;SDS011;69208;47.502;18.940;2023-08-06T02:49:26;9.68;;;6.28;;
65755;SDS011;69208;47.502;18.940;2023-08-06T02:50:29;9.43;;;5.93;;
65755;SDS011;69208;47.502;18.940;2023-08-06T02:51:32;8.52;;;5.97;;
65755;SDS011;69208;47.502;18.940;2023-08-06T02:52:34;8.95;;;6.55;;
65755;SDS011;69208;47.502;18.940;2023-08-06T02:53:37;8.13;;;6.20;;
65755;SDS011;69208;47.502;18.940;2023-08-06T02:54:40;8.68;;;6.28;;
65755;SDS011;69208;47.502;18.940;2023-08-06T02:55:48;7.93;;;6.32;;
65755;SDS011;69208;47.502;18.940;2023-08-06T02:56:51;9.32;;;6.30;;
65755;SDS011;69208;47.502;18.940;2023-08-06T02:57:54;7.68;;;6.12;;
65755;SDS011;69208;47.502;18.940;2023-08-06T02:58:57;11.70;;;6.05;;
65755;SDS011;69208;47.502;18.940;2023-08-06T02:59:59;7.87;;;6.53;;
65755;SDS011;69208;47.502;18.940;2023-08-06T03:01:03;7.25;;;5.70;;
65755;SDS011;69208;47.502;18.940;2023-08-06T03:02:07;9.18;;;6.43;;
65755;SDS011;69208;47.502;18.940;2023-08-06T03:03:10;10.05;;;6.28;;
65755;SDS011;69208;47.502;18.940;2023-08-06T03:04:13;8.98;;;5.95;;
65755;SDS011;69208;47.502;18.940;2023-08-06T03:05:15;8.05;;;6.55;;
65755;SDS011;69208;47.502;18.940;2023-08-06T03:06:18;10.77;;;6.60;;
65755;SDS011;69208;47.502;18.940;2023-08-06T03:07:21;12.52;;;6.60;;
65755;SDS011;69208;47.502;18.940;2023-08-06T03:08:25;19.77;;;7.25;;
65755;SDS011;69208;47.502;18.940;2023-08-06T03:09:28;9.88;;;7.12;;
65755;SDS011;69208;47.502;18.940;2023-08-06T03:10:31;37.65;;;7.53;;
65755;SDS011;69208;47.502;18.940;2023-08-06T03:11:33;21.75;;;6.78;;
65755;SDS011;69208;47.502;18.940;2023-08-06T03:12:36;20.17;;;7.50;;
65755;SDS011;69208;47.502;18.940;2023-08-06T03:13:39;11.07;;;7.03;;
65755;SDS011;69208;47.502;18.940;2023-08-06T03:14:42;19.83;;;7.25;;
65755;SDS011;69208;47.502;18.940;2023-08-06T03:15:51;12.82;;;6.82;;
65755;SDS011;69208;47.502;18.940;2023-08-06T03:17:58;12.90;;;7.40;;
65755;SDS011;69208;47.502;18.940;2023-08-06T03:19:01;9.40;;;6.87;;
65755;SDS011;69208;47.502;18.940;2023-08-06T03:20:04;8.48;;;6.90;;
65755;SDS011;69208;47.502;18.940;2023-08-06T03:21:08;9.75;;;6.87;;
65755;SDS011;69208;47.502;18.940;2023-08-06T03:22:11;8.13;;;6.62;;
65755;SDS011;69208;47.502;18.940;2023-08-06T03:23:13;11.10;;;7.20;;
65755;SDS011;69208;47.502;18.940;2023-08-06T03:24:16;8.32;;;6.80;;
65755;SDS011;69208;47.502;18.940;2023-08-06T03:25:19;8.25;;;6.40;;
65755;SDS011;69208;47.502;18.940;2023-08-06T03:26:22;8.07;;;6.78;;
65755;SDS011;69208;47.502;18.940;2023-08-06T03:27:24;9.23;;;7.10;;
65755;SDS011;69208;47.502;18.940;2023-08-06T03:28:27;22.08;;;6.72;;
65755;SDS011;69208;47.502;18.940;2023-08-06T03:29:30;28.00;;;7.97;;
65755;SDS011;69208;47.502;18.940;2023-08-06T03:30:33;51.20;;;8.23;;
65755;SDS011;69208;47.502;18.940;2023-08-06T03:31:35;54.65;;;8.15;;
65755;SDS011;69208;47.502;18.940;2023-08-06T03:32:38;25.23;;;7.37;;
65755;SDS011;69208;47.502;18.940;2023-08-06T03:33:41;35.42;;;8.18;;
65755;SDS011;69208;47.502;18.940;2023-08-06T03:34:44;178.18;;;12.48;;
65755;SDS011;69208;47.502;18.940;2023-08-06T03:35:47;237.98;;;13.65;;
65755;SDS011;69208;47.502;18.940;2023-08-06T03:36:50;128.65;;;10.60;;
65755;SDS011;69208;47.502;18.940;2023-08-06T03:37:52;73.28;;;9.68;;
65755;SDS011;69208;47.502;18.940;2023-08-06T03:38:55;97.72;;;9.85;;
65755;SDS011;69208;47.502;18.940;2023-08-06T03:39:58;93.78;;;10.30;;
65755;SDS011;69208;47.502;18.940;2023-08-06T03:41:00;73.40;;;9.23;;
65755;SDS011;69208;47.502;18.940;2023-08-06T03:42:03;65.43;;;9.43;;
65755;SDS011;69208;47.502;18.940;2023-08-06T03:43:06;138.73;;;10.77;;
65755;SDS011;69208;47.502;18.940;2023-08-06T03:44:09;62.00;;;8.93;;
65755;SDS011;69208;47.502;18.940;2023-08-06T03:45:12;123.15;;;11.07;;
65755;SDS011;69208;47.502;18.940;2023-08-06T03:46:14;328.00;;;16.42;;
65755;SDS011;69208;47.502;18.940;2023-08-06T03:47:17;55.17;;;9.00;;
65755;SDS011;69208;47.502;18.940;2023-08-06T03:48:20;20.35;;;8.30;;
65755;SDS011;69208;47.502;18.940;2023-08-06T03:49:23;264.40;;;14.60;;
65755;SDS011;69208;47.502;18.940;2023-08-06T03:50:25;15.15;;;8.57;;
65755;SDS011;69208;47.502;18.940;2023-08-06T03:51:28;45.42;;;9.45;;
65755;SDS011;69208;47.502;18.940;2023-08-06T03:52:31;27.55;;;8.68;;
65755;SDS011;69208;47.502;18.940;2023-08-06T03:53:33;24.23;;;8.30;;
65755;SDS011;69208;47.502;18.940;2023-08-06T03:54:36;15.52;;;8.43;;
65755;SDS011;69208;47.502;18.940;2023-08-06T03:55:39;18.85;;;8.80;;
65755;SDS011;69208;47.502;18.940;2023-08-06T03:56:42;10.98;;;7.70;;
65755;SDS011;69208;47.502;18.940;2023-08-06T03:57:44;16.95;;;7.87;;
65755;SDS011;69208;47.502;18.940;2023-08-06T03:58:47;9.32;;;7.50;;
65755;SDS011;69208;47.502;18.940;2023-08-06T03:59:50;9.57;;;7.30;;
65755;SDS011;69208;47.502;18.940;2023-08-06T04:00:57;10.48;;;7.22;;
65755;SDS011;69208;47.502;18.940;2023-08-06T04:02:01;9.88;;;7.10;;
65755;SDS011;69208;47.502;18.940;2023-08-06T04:03:04;7.65;;;6.25;;
65755;SDS011;69208;47.502;18.940;2023-08-06T04:04:07;8.43;;;6.50;;
65755;SDS011;69208;47.502;18.940;2023-08-06T04:05:10;7.80;;;6.30;;
65755;SDS011;69208;47.502;18.940;2023-08-06T04:06:12;6.97;;;6.28;;
65755;SDS011;69208;47.502;18.940;2023-08-06T04:07:15;7.85;;;6.10;;
65755;SDS011;69208;47.502;18.940;2023-08-06T04:08:18;8.90;;;6.40;;
65755;SDS011;69208;47.502;18.940;2023-08-06T04:09:21;6.55;;;5.60;;
65755;SDS011;69208;47.502;18.940;2023-08-06T04:10:24;6.78;;;5.60;;
65755;SDS011;69208;47.502;18.940;2023-08-06T04:11:26;6.53;;;5.05;;
65755;SDS011;69208;47.502;18.940;2023-08-06T04:12:29;6.25;;;4.87;;
65755;SDS011;69208;47.502;18.940;2023-08-06T04:13:32;9.50;;;4.97;;
65755;SDS011;69208;47.502;18.940;2023-08-06T04:14:35;9.43;;;4.55;;
65755;SDS011;69208;47.502;18.940;2023-08-06T04:15:38;10.80;;;5.28;;
65755;SDS011;69208;47.502;18.940;2023-08-06T04:16:40;6.18;;;4.47;;
65755;SDS011;69208;47.502;18.940;2023-08-06T04:17:43;6.87;;;4.60;;
65755;SDS011;69208;47.502;18.940;2023-08-06T04:18:46;6.93;;;4.72;;
65755;SDS011;69208;47.502;18.940;2023-08-06T04:19:53;6.25;;;4.65;;
65755;SDS011;69208;47.502;18.940;2023-08-06T04:20:57;6.70;;;4.80;;
65755;SDS011;69208;47.502;18.940;2023-08-06T04:21:59;6.55;;;4.80;;
65755;SDS011;69208;47.502;18.940;2023-08-06T04:23:05;6.25;;;4.72;;
65755;SDS011;69208;47.502;18.940;2023-08-06T04:24:08;8.23;;;4.70;;
65755;SDS011;69208;47.502;18.940;2023-08-06T04:25:11;12.48;;;5.05;;
65755;SDS011;69208;47.502;18.940;2023-08-06T04:26:14;6.45;;;4.43;;
65755;SDS011;69208;47.502;18.940;2023-08-06T04:27:17;6.03;;;4.03;;
65755;SDS011;69208;47.502;18.940;2023-08-06T04:28:21;5.12;;;4.05;;
65755;SDS011;69208;47.502;18.940;2023-08-06T04:29:24;4.55;;;3.50;;
65755;SDS011;69208;47.502;18.940;2023-08-06T04:30:27;3.90;;;3.20;;
65755;SDS011;69208;47.502;18.940;2023-08-06T04:31:30;3.22;;;2.87;;
65755;SDS011;69208;47.502;18.940;2023-08-06T04:32:33;7.03;;;3.30;;
65755;SDS011;69208;47.502;18.940;2023-08-06T04:33:35;3.97;;;2.85;;
65755;SDS011;69208;47.502;18.940;2023-08-06T04:34:38;4.03;;;2.60;;
65755;SDS011;69208;47.502;18.940;2023-08-06T04:35:41;5.00;;;2.95;;
65755;SDS011;69208;47.502;18.940;2023-08-06T04:36:43;2.87;;;2.53;;
65755;SDS011;69208;47.502;18.940;2023-08-06T04:37:46;5.47;;;2.60;;
65755;SDS011;69208;47.502;18.940;2023-08-06T04:38:49;2.75;;;2.05;;
65755;SDS011;69208;47.502;18.940;2023-08-06T04:39:52;2.25;;;1.90;;
65755;SDS011;69208;47.502;18.940;2023-08-06T04:40:55;3.62;;;1.90;;
65755;SDS011;69208;47.502;18.940;2023-08-06T04:41:57;2.00;;;1.80;;
65755;SDS011;69208;47.502;18.940;2023-08-06T04:43:00;2.55;;;1.87;;
65755;SDS011;69208;47.502;18.940;2023-08-06T04:44:03;4.53;;;1.80;;
65755;SDS011;69208;47.502;18.940;2023-08-06T04:45:06;1.75;;;1.60;;
65755;SDS011;69208;47.502;18.940;2023-08-06T04:46:09;2.17;;;1.70;;
65755;SDS011;69208;47.502;18.940;2023-08-06T04:47:12;2.70;;;1.60;;
65755;SDS011;69208;47.502;18.940;2023-08-06T04:48:17;1.67;;;1.58;;
65755;SDS011;69208;47.502;18.940;2023-08-06T04:49:20;1.40;;;1.30;;
65755;SDS011;69208;47.502;18.940;2023-08-06T04:50:23;2.35;;;1.60;;
65755;SDS011;69208;47.502;18.940;2023-08-06T04:51:26;1.80;;;1.50;;
65755;SDS011;69208;47.502;18.940;2023-08-06T04:52:29;1.70;;;1.30;;
65755;SDS011;69208;47.502;18.940;2023-08-06T04:53:34;1.20;;;1.10;;
65755;SDS011;69208;47.502;18.940;2023-08-06T04:54:37;1.50;;;1.40;;
65755;SDS011;69208;47.502;18.940;2023-08-06T04:55:40;6.20;;;1.40;;
65755;SDS011;69208;47.502;18.940;2023-08-06T04:56:43;2.00;;;1.30;;
65755;SDS011;69208;47.502;18.940;2023-08-06T04:57:46;3.37;;;1.40;;
65755;SDS011;69208;47.502;18.940;2023-08-06T04:58:49;1.52;;;1.20;;
65755;SDS011;69208;47.502;18.940;2023-08-06T04:59:52;1.75;;;1.27;;
65755;SDS011;69208;47.502;18.940;2023-08-06T05:00:55;3.15;;;1.10;;
65755;SDS011;69208;47.502;18.940;2023-08-06T05:01:57;1.92;;;1.02;;
65755;SDS011;69208;47.502;18.940;2023-08-06T05:03:00;1.33;;;1.10;;
65755;SDS011;69208;47.502;18.940;2023-08-06T05:04:03;2.58;;;1.25;;
65755;SDS011;69208;47.502;18.940;2023-08-06T05:05:06;1.20;;;0.80;;
65755;SDS011;69208;47.502;18.940;2023-08-06T05:06:09;1.58;;;0.90;;
65755;SDS011;69208;47.502;18.940;2023-08-06T05:07:13;0.80;;;0.80;;
65755;SDS011;69208;47.502;18.940;2023-08-06T05:08:15;2.47;;;0.75;;
65755;SDS011;69208;47.502;18.940;2023-08-06T05:09:19;1.60;;;0.65;;
65755;SDS011;69208;47.502;18.940;2023-08-06T05:10:24;0.82;;;0.80;;
65755;SDS011;69208;47.502;18.940;2023-08-06T05:11:27;0.70;;;0.70;;
65755;SDS011;69208;47.502;18.940;2023-08-06T05:12:29;1.10;;;0.85;;
65755;SDS011;69208;47.502;18.940;2023-08-06T05:13:32;0.68;;;0.68;;
65755;SDS011;69208;47.502;18.940;2023-08-06T05:14:35;0.70;;;0.70;;
65755;SDS011;69208;47.502;18.940;2023-08-06T05:15:38;0.60;;;0.60;;
65755;SDS011;69208;47.502;18.940;2023-08-06T05:16:44;0.68;;;0.60;;
65755;SDS011;69208;47.502;18.940;2023-08-06T05:17:47;1.87;;;0.82;;
65755;SDS011;69208;47.502;18.940;2023-08-06T05:18:50;0.80;;;0.80;;
65755;SDS011;69208;47.502;18.940;2023-08-06T05:19:53;0.70;;;0.70;;
65755;SDS011;69208;47.502;18.940;2023-08-06T05:20:55;0.70;;;0.68;;
65755;SDS011;69208;47.502;18.940;2023-08-06T05:21:59;0.68;;;0.60;;
65755;SDS011;69208;47.502;18.940;2023-08-06T05:23:03;3.08;;;0.70;;
65755;SDS011;69208;47.502;18.940;2023-08-06T05:24:06;2.87;;;0.88;;
65755;SDS011;69208;47.502;18.940;2023-08-06T05:25:08;1.65;;;0.75;;
65755;SDS011;69208;47.502;18.940;2023-08-06T05:26:11;0.77;;;0.70;;
65755;SDS011;69208;47.502;18.940;2023-08-06T05:27:14;0.50;;;0.50;;
65755;SDS011;69208;47.502;18.940;2023-08-06T05:28:17;0.80;;;0.80;;
65755;SDS011;69208;47.502;18.940;2023-08-06T05:29:22;1.05;;;0.60;;
65755;SDS011;69208;47.502;18.940;2023-08-06T05:30:25;3.75;;;0.60;;
65755;SDS011;69208;47.502;18.940;2023-08-06T05:31:28;0.70;;;0.70;;
65755;SDS011;69208;47.502;18.940;2023-08-06T05:32:31;0.55;;;0.47;;
65755;SDS011;69208;47.502;18.940;2023-08-06T05:33:34;0.47;;;0.47;;
65755;SDS011;69208;47.502;18.940;2023-08-06T05:34:36;0.50;;;0.50;;
65755;SDS011;69208;47.502;18.940;2023-08-06T05:35:40;1.17;;;0.52;;
65755;SDS011;69208;47.502;18.940;2023-08-06T05:36:44;0.55;;;0.55;;
65755;SDS011;69208;47.502;18.940;2023-08-06T05:37:47;0.62;;;0.52;;
65755;SDS011;69208;47.502;18.940;2023-08-06T05:38:50;0.60;;;0.60;;
65755;SDS011;69208;47.502;18.940;2023-08-06T05:39:53;2.03;;;0.80;;
65755;SDS011;69208;47.502;18.940;2023-08-06T05:40:55;0.73;;;0.62;;
65755;SDS011;69208;47.502;18.940;2023-08-06T05:41:58;0.50;;;0.50;;
65755;SDS011;69208;47.502;18.940;2023-08-06T05:43:01;0.60;;;0.60;;
65755;SDS011;69208;47.502;18.940;2023-08-06T05:44:04;1.58;;;0.50;;
65755;SDS011;69208;47.502;18.940;2023-08-06T05:45:07;0.50;;;0.50;;
65755;SDS011;69208;47.502;18.940;2023-08-06T05:46:11;0.65;;;0.50;;
65755;SDS011;69208;47.502;18.940;2023-08-06T05:47:14;0.50;;;0.50;;
65755;SDS011;69208;47.502;18.940;2023-08-06T05:48:17;0.50;;;0.50;;
65755;SDS011;69208;47.502;18.940;2023-08-06T05:49:20;3.95;;;0.50;;
65755;SDS011;69208;47.502;18.940;2023-08-06T05:50:23;1.00;;;0.60;;
65755;SDS011;69208;47.502;18.940;2023-08-06T05:51:26;0.85;;;0.40;;
65755;SDS011;69208;47.502;18.940;2023-08-06T05:52:29;2.83;;;0.80;;
65755;SDS011;69208;47.502;18.940;2023-08-06T05:53:32;1.25;;;0.60;;
65755;SDS011;69208;47.502;18.940;2023-08-06T05:54:35;1.40;;;0.50;;
65755;SDS011;69208;47.502;18.940;2023-08-06T05:55:39;0.50;;;0.50;;
65755;SDS011;69208;47.502;18.940;2023-08-06T05:56:41;0.60;;;0.57;;
65755;SDS011;69208;47.502;18.940;2023-08-06T05:57:44;0.80;;;0.80;;
65755;SDS011;69208;47.502;18.940;2023-08-06T05:58:47;1.10;;;0.57;;
65755;SDS011;69208;47.502;18.940;2023-08-06T05:59:50;0.95;;;0.50;;
65755;SDS011;69208;47.502;18.940;2023-08-06T06:00:52;0.68;;;0.60;;
65755;SDS011;69208;47.502;18.940;2023-08-06T06:01:55;1.08;;;0.60;;
65755;SDS011;69208;47.502;18.940;2023-08-06T06:02:58;0.40;;;0.40;;
65755;SDS011;69208;47.502;18.940;2023-08-06T06:04:01;0.90;;;0.50;;
65755;SDS011;69208;47.502;18.940;2023-08-06T06:05:04;0.68;;;0.60;;
65755;SDS011;69208;47.502;18.940;2023-08-06T06:06:07;0.82;;;0.50;;
65755;SDS011;69208;47.502;18.940;2023-08-06T06:07:09;0.70;;;0.70;;
65755;SDS011;69208;47.502;18.940;2023-08-06T06:08:12;1.95;;;0.70;;
65755;SDS011;69208;47.502;18.940;2023-08-06T06:09:15;1.37;;;0.75;;
65755;SDS011;69208;47.502;18.940;2023-08-06T06:10:18;0.85;;;0.80;;
65755;SDS011;69208;47.502;18.940;2023-08-06T06:11:21;0.73;;;0.65;;
65755;SDS011;69208;47.502;18.940;2023-08-06T06:12:24;2.60;;;0.77;;
65755;SDS011;69208;47.502;18.940;2023-08-06T06:13:28;0.70;;;0.70;;
65755;SDS011;69208;47.502;18.940;2023-08-06T06:14:31;0.60;;;0.60;;
65755;SDS011;69208;47.502;18.940;2023-08-06T06:15:34;5.60;;;0.80;;
65755;SDS011;69208;47.502;18.940;2023-08-06T06:16:37;0.70;;;0.70;;
65755;SDS011;69208;47.502;18.940;2023-08-06T06:17:39;0.80;;;0.77;;
65755;SDS011;69208;47.502;18.940;2023-08-06T06:18:42;0.68;;;0.65;;
65755;SDS011;69208;47.502;18.940;2023-08-06T06:19:45;0.85;;;0.85;;
65755;SDS011;69208;47.502;18.940;2023-08-06T06:20:48;0.73;;;0.70;;
65755;SDS011;69208;47.502;18.940;2023-08-06T06:21:51;0.93;;;0.70;;
65755;SDS011;69208;47.502;18.940;2023-08-06T06:22:55;1.30;;;0.70;;
65755;SDS011;69208;47.502;18.940;2023-08-06T06:23:58;0.75;;;0.75;;